Bluefield, WV

9:14 AM EDT on March 31, 2015 (GMT -0400)
South Bluefield | | Change Station
CLOSE
Current Station
Personal Weather Station
Location: Bluefield, WV
Elevation: 2700 ft
Nearby Weather Stations
Active Advisory: Special Statement

Elev 2700 ft 37.26 °N, 81.20 °W | Updated 10 seconds ago

Clear
Clear
43.9 °F
Feels Like 41 °F
N
5.0
Wind Variable Wind from South
Gusts 5.0 mph

Today
High -- | Low -- °F
--% Chance of Precip.
Yesterday
High -- | Low -- °F
Precip. -- in
7:12 AM 7:46 PM
Waxing Gibbous, 86% visible
Pressure 29.95 in
Visibility 10.0 miles
Clouds Clear
Windchill 41 °F
Dew Point 26 °F
Humidity 50%
Rainfall 0.00 in
Snow Depth Not available.
UV 1 out of 12
Pollen 10.20 out of 12
Air Quality Not available.
Flu Activity Not available.
METAR KBLF 311252Z AUTO 25009KT 10SM CLR 08/M04 A2997 RMK AO2 SLP141 T00831039

More Conditions Fewer Conditions

Pressure 29.95 in
Visibility 10.0 miles
Clouds Clear
Windchill 41 °F
Dew Point 26 °F
Humidity 50%
Rainfall 0.00 in
Snow Depth Not available.
UV 1 out of 12
Pollen 10.20 out of 12
Air Quality Not available.
Flu Activity Not available.
METAR KBLF 311252Z AUTO 25009KT 10SM CLR 08/M04 A2997 RMK AO2 SLP141 T00831039

More Conditions Fewer Conditions

10-Day Weather Forecast

Almanac

Astronomy

Mar. 31, 2015 Rise Set
Actual Time
Civil Twilight
Nautical Twilight
Astronomical Twilight
Moon
Length of Visible Light
Length of Day
Tomorrow will be .
, % of the Moon is Illuminated

Today's Extremes

State Highs State Lows

Community

WunderPhotos

Upload Photos

1,809,760 photos uploaded!

WunderBlogs® & News

Nearby

Air Quality

  Air Quality AQ Index Pollutant
Not available.

Snow Depth

Station Depth Elevation

Earthquake Activity

City Distance Mag. Time & Date
Minimum magnitude displayed is 2.5.

Coastal Water Temperatures

Place Temperature

Stations

Nearby Weather Stations

Station Location Temp. Windchill Dew Point Humidity Wind Precip. Elev Updated Type
                   
Special Statement
Statement as of 9:04 AM EDT on March 31, 2015


... Increased fire danger today...

Strong southwesterly winds are expected today as deep low
pressure passes across the mid Atlantic this afternoon. The
southwesterly flow will cause afternoon temperatures to range from
the mid 60s to the lower 70s... and drive relative humidity values
to near 20 to 30 percent for several hours during the afternoon.
Wind speeds during the afternoon will range from 15 mph to 20
mph... with gusts as high as 30 mph for much of the area... possibly
reaching 40 mph across the higher ridges. The combination of dry
fuels... low relative humidity and gusty winds will heighten fire
danger today.

Please advise the appropriate officials and fire crews in the
field of this Fire Danger Statement.

Additional fire weather information is available on our web site at
http://www.Weather.Gov/rnk